createdAt,value
2022-10-15T00:00:34.031Z,19.95
2022-10-15T00:02:57.677Z,19.85
2022-10-15T00:05:21.682Z,19.80
2022-10-15T00:07:45.271Z,19.85
2022-10-15T00:10:09.387Z,20.35
2022-10-15T00:12:33.831Z,20.30
2022-10-15T00:14:57.618Z,20.35
2022-10-15T00:17:22.888Z,21.83
2022-10-15T00:19:46.799Z,21.20
2022-10-15T00:22:10.331Z,20.90
2022-10-15T00:24:33.901Z,21.65
2022-10-15T00:26:57.579Z,20.10
2022-10-15T00:29:21.231Z,21.50
2022-10-15T00:31:44.787Z,22.13
2022-10-15T00:34:11.252Z,21.85
2022-10-15T00:36:37.405Z,21.85
2022-10-15T00:39:01.677Z,22.05
2022-10-15T00:41:28.618Z,22.42
2022-10-15T00:43:55.487Z,22.45
2022-10-15T00:46:29.556Z,21.67
2022-10-15T00:48:58.867Z,21.50
2022-10-15T00:51:27.305Z,21.90
2022-10-15T00:53:52.177Z,21.50
2022-10-15T00:56:19.776Z,21.88
2022-10-15T00:58:44.248Z,21.05
2022-10-15T01:01:07.896Z,22.40
2022-10-15T01:03:31.791Z,20.92
2022-10-15T01:05:56.322Z,21.92
2022-10-15T01:08:21.306Z,21.83
2022-10-15T01:10:54.399Z,22.35
2022-10-15T01:13:32.213Z,21.65
2022-10-15T01:16:02.654Z,21.52
2022-10-15T01:18:32.775Z,21.40
2022-10-15T01:21:07.794Z,22.15
2022-10-15T01:24:43.832Z,22.02
2022-10-15T01:27:34.358Z,21.95
2022-10-15T01:30:18.251Z,21.92
2022-10-15T01:32:54.824Z,22.42
2022-10-15T01:35:33.090Z,22.88
2022-10-15T01:38:06.083Z,22.10
2022-10-15T01:40:37.214Z,22.30
2022-10-15T01:43:02.528Z,23.65
2022-10-15T01:45:44.267Z,23.05
2022-10-15T01:48:14.635Z,23.65
2022-10-15T01:50:45.287Z,23.80
2022-10-15T01:53:10.528Z,23.60
2022-10-15T01:55:38.240Z,23.60
2022-10-15T01:58:04.036Z,24.20
2022-10-15T02:00:27.651Z,23.25
2022-10-15T02:02:52.649Z,23.45
2022-10-15T02:05:22.159Z,23.73
2022-10-15T02:07:58.555Z,24.30
2022-10-15T02:10:29.664Z,24.20
2022-10-15T02:13:06.099Z,25.17
2022-10-15T02:15:40.186Z,24.70
2022-10-15T02:18:12.423Z,25.20
2022-10-15T02:20:43.547Z,24.90
2022-10-15T02:23:14.939Z,24.88
2022-10-15T02:25:41.579Z,26.05
2022-10-15T02:28:06.575Z,25.75
2022-10-15T02:30:31.614Z,25.05
2022-10-15T02:33:00.104Z,24.60
2022-10-15T02:35:26.223Z,25.52
2022-10-15T02:37:54.231Z,24.20
2022-10-15T02:40:17.945Z,25.60
2022-10-15T02:42:42.042Z,25.35
2022-10-15T02:45:06.970Z,25.70
2022-10-15T02:47:31.640Z,24.52
2022-10-15T02:49:58.744Z,25.15
2022-10-15T02:52:23.838Z,26.45
2022-10-15T02:54:47.687Z,25.17
2022-10-15T02:57:11.959Z,25.38
2022-10-15T02:59:38.547Z,26.20
2022-10-15T03:02:02.083Z,26.10
2022-10-15T03:04:26.399Z,25.23
2022-10-15T03:06:50.472Z,26.25
2022-10-15T03:09:16.242Z,25.55
2022-10-15T03:11:40.834Z,25.55
2022-10-15T03:14:04.422Z,25.90
2022-10-15T03:16:29.242Z,24.92
2022-10-15T03:18:52.908Z,25.98
2022-10-15T03:21:16.582Z,25.67
2022-10-15T03:23:41.263Z,25.50
2022-10-15T03:26:12.782Z,26.20
2022-10-15T03:28:36.826Z,25.23
2022-10-15T03:31:00.591Z,25.13
2022-10-15T03:33:25.246Z,25.60
2022-10-15T03:35:49.927Z,24.83
2022-10-15T03:38:13.577Z,26.00
2022-10-15T03:40:37.493Z,26.70
2022-10-15T03:43:16.323Z,26.70
2022-10-15T03:45:40.102Z,25.55
2022-10-15T03:48:12.788Z,25.98
2022-10-15T03:50:36.552Z,25.88
2022-10-15T03:53:00.119Z,26.20
2022-10-15T03:55:23.807Z,24.92
2022-10-15T03:57:47.614Z,25.13
2022-10-15T04:00:15.435Z,24.67
2022-10-15T04:02:38.874Z,26.17
2022-10-15T04:05:10.313Z,24.90
2022-10-15T04:07:38.871Z,26.05
2022-10-15T04:10:09.228Z,25.23
2022-10-15T04:12:35.783Z,25.10
2022-10-15T04:14:59.615Z,24.25
2022-10-15T04:17:24.623Z,25.58
2022-10-15T04:19:48.202Z,25.15
2022-10-15T04:22:12.585Z,25.02
2022-10-15T04:24:44.291Z,25.13
2022-10-15T04:27:12.112Z,25.83
2022-10-15T04:29:35.786Z,24.65
2022-10-15T04:32:12.055Z,24.77
2022-10-15T04:34:37.122Z,25.30
2022-10-15T04:37:00.736Z,25.13
2022-10-15T04:39:25.000Z,23.75
2022-10-15T04:41:48.932Z,24.48
2022-10-15T04:44:22.022Z,24.52
2022-10-15T04:46:50.902Z,23.63
2022-10-15T04:49:29.990Z,23.80
2022-10-15T04:51:55.695Z,24.42
2022-10-15T04:56:58.168Z,22.60
2022-10-15T04:59:22.100Z,23.02
2022-10-15T05:02:20.982Z,23.40
2022-10-15T05:04:52.863Z,22.67
2022-10-15T05:07:17.942Z,23.33
2022-10-15T05:09:46.297Z,22.55
2022-10-15T05:12:10.768Z,22.50
2022-10-15T05:14:35.705Z,22.35
2022-10-15T05:17:04.651Z,22.05
2022-10-15T05:19:34.024Z,23.05
2022-10-15T05:21:57.769Z,22.38
2022-10-15T05:24:23.321Z,22.73
2022-10-15T05:26:52.131Z,21.60
2022-10-15T05:29:15.716Z,24.33
2022-10-15T05:31:39.410Z,23.23
2022-10-15T05:34:15.695Z,22.50
2022-10-15T05:36:48.604Z,23.40
2022-10-15T05:39:14.167Z,22.92
2022-10-15T05:41:41.494Z,23.83
2022-10-15T05:44:06.093Z,21.23
2022-10-15T05:46:30.210Z,22.27
2022-10-15T05:48:55.906Z,23.13
2022-10-15T05:51:20.791Z,22.05
2022-10-15T05:53:46.402Z,24.55
2022-10-15T05:56:10.459Z,21.20
2022-10-15T05:58:37.595Z,23.25
2022-10-15T06:01:04.699Z,22.70
2022-10-15T06:03:30.494Z,21.13
2022-10-15T06:05:54.220Z,20.33
2022-10-15T06:08:18.965Z,19.63
2022-10-15T06:10:42.603Z,21.02
2022-10-15T06:13:06.499Z,23.25
2022-10-15T06:15:31.530Z,24.42
2022-10-15T06:17:55.409Z,25.40
2022-10-15T06:20:19.027Z,24.08
2022-10-15T06:22:42.638Z,22.38
2022-10-15T06:25:07.676Z,23.52
2022-10-15T06:27:33.747Z,24.42
2022-10-15T06:29:57.236Z,24.48
2022-10-15T06:32:22.176Z,23.20
2022-10-15T06:34:45.967Z,24.42
2022-10-15T06:37:09.687Z,23.77
2022-10-15T06:39:33.235Z,21.60
2022-10-15T06:41:56.856Z,22.25
2022-10-15T06:44:29.302Z,25.00
2022-10-15T06:46:52.929Z,25.65
2022-10-15T06:49:17.854Z,23.58
2022-10-15T06:51:41.395Z,26.10
2022-10-15T06:54:05.140Z,25.10
2022-10-15T06:56:28.750Z,26.02
2022-10-15T06:58:52.256Z,23.25
2022-10-15T07:01:17.094Z,24.67
2022-10-15T07:03:40.881Z,25.13
2022-10-15T07:06:07.594Z,26.73
2022-10-15T07:08:31.156Z,26.13
2022-10-15T07:10:54.747Z,23.85
2022-10-15T07:13:21.118Z,22.20
2022-10-15T07:15:46.319Z,22.00
2022-10-15T07:18:09.832Z,21.73
2022-10-15T07:20:33.507Z,21.33
2022-10-15T07:23:03.309Z,19.15
2022-10-15T07:25:28.802Z,20.02
2022-10-15T07:27:52.430Z,19.73
2022-10-15T07:30:16.040Z,19.15
2022-10-15T07:32:39.929Z,17.38
2022-10-15T07:35:03.612Z,17.27
2022-10-15T07:37:27.446Z,16.23
2022-10-15T07:39:52.420Z,16.55
2022-10-15T07:42:15.915Z,17.15
2022-10-15T07:44:39.501Z,22.48
2022-10-15T07:47:07.954Z,22.63
2022-10-15T07:49:31.866Z,20.27
2022-10-15T07:51:55.439Z,16.63
2022-10-15T07:54:21.687Z,17.08
2022-10-15T07:56:46.567Z,16.45
2022-10-15T07:59:10.567Z,39.03
2022-10-15T08:01:34.054Z,56.20
2022-10-15T08:03:57.649Z,28.70
2022-10-15T08:06:21.638Z,41.38
2022-10-15T08:08:45.189Z,21.83
2022-10-15T08:11:10.518Z,69.03
2022-10-15T08:13:35.514Z,36.00
2022-10-15T08:16:00.319Z,25.98
2022-10-15T08:18:24.076Z,13.43
2022-10-15T08:20:47.578Z,12.38
2022-10-15T08:23:17.050Z,11.07
2022-10-15T08:25:42.037Z,27.70
2022-10-15T08:30:40.263Z,18.73
2022-10-15T08:33:09.782Z,39.25
2022-10-15T08:35:35.426Z,18.83
2022-10-15T08:37:58.910Z,20.98
2022-10-15T08:40:23.917Z,23.17
2022-10-15T08:42:48.431Z,18.67
2022-10-15T08:45:17.386Z,23.60
2022-10-15T08:47:48.315Z,11.25
2022-10-15T08:50:26.811Z,12.45
2022-10-15T08:52:52.295Z,11.73
2022-10-15T08:55:18.413Z,10.98
2022-10-15T08:57:48.736Z,10.27
2022-10-15T09:00:20.155Z,9.88
2022-10-15T09:03:00.394Z,9.13
2022-10-15T09:05:33.701Z,9.25
2022-10-15T09:08:05.855Z,10.68
2022-10-15T09:10:41.856Z,9.23
2022-10-15T09:13:16.237Z,10.65
2022-10-15T09:15:50.120Z,11.27
2022-10-15T09:18:23.392Z,9.68
2022-10-15T09:20:47.605Z,9.00
2022-10-15T09:23:18.921Z,9.57
2022-10-15T09:25:47.338Z,11.18
2022-10-15T09:28:12.523Z,10.27
2022-10-15T09:30:44.519Z,10.60
2022-10-15T09:33:16.904Z,10.18
2022-10-15T09:35:45.231Z,10.40
2022-10-15T09:38:27.059Z,10.15
2022-10-15T09:41:06.763Z,10.80
2022-10-15T09:43:36.233Z,9.57
2022-10-15T09:46:00.764Z,9.57
2022-10-15T09:48:28.873Z,10.07
2022-10-15T09:50:59.231Z,10.00
2022-10-15T09:53:33.994Z,9.98
2022-10-15T09:56:06.566Z,9.93
2022-10-15T09:58:36.704Z,21.20
2022-10-15T10:01:03.070Z,9.45
2022-10-15T10:03:34.357Z,13.25
2022-10-15T10:06:04.623Z,10.07
2022-10-15T10:08:39.209Z,22.80
2022-10-15T10:11:06.594Z,11.27
2022-10-15T10:13:34.257Z,10.38
2022-10-15T10:16:06.225Z,9.38
2022-10-15T10:18:32.515Z,10.55
2022-10-15T10:20:59.862Z,9.00
2022-10-15T10:23:26.673Z,8.73
2022-10-15T10:25:50.733Z,8.18
2022-10-15T10:28:24.764Z,9.82
2022-10-15T10:31:03.554Z,10.60
2022-10-15T10:33:31.949Z,9.23
2022-10-15T10:35:56.738Z,9.35
2022-10-15T10:38:26.170Z,9.52
2022-10-15T10:40:53.583Z,9.13
2022-10-15T10:43:25.226Z,9.45
2022-10-15T10:46:02.314Z,9.18
2022-10-15T10:48:48.247Z,9.48
2022-10-15T10:51:18.405Z,8.50
2022-10-15T10:53:52.567Z,8.20
2022-10-15T10:56:18.527Z,8.57
2022-10-15T10:58:43.045Z,9.10
2022-10-15T11:01:07.026Z,8.40
2022-10-15T11:03:36.905Z,8.25
2022-10-15T11:06:16.903Z,7.63
2022-10-15T11:08:48.607Z,7.35
2022-10-15T11:11:19.567Z,6.50
2022-10-15T11:13:57.302Z,6.82
2022-10-15T11:16:31.691Z,6.82
2022-10-15T11:19:19.863Z,7.97
2022-10-15T11:25:06.014Z,7.18
2022-10-15T11:27:49.823Z,7.18
2022-10-15T11:30:33.920Z,6.85
2022-10-15T11:33:11.455Z,7.10
2022-10-15T11:35:53.714Z,6.30
2022-10-15T11:38:30.422Z,6.40
2022-10-15T11:41:13.591Z,5.53
2022-10-15T11:43:57.062Z,6.05
2022-10-15T11:46:28.450Z,6.25
2022-10-15T11:49:08.273Z,6.78
2022-10-15T11:51:41.643Z,6.43
2022-10-15T11:54:24.733Z,5.97
2022-10-15T11:56:51.889Z,5.88
2022-10-15T11:59:32.219Z,6.72
2022-10-15T12:02:01.700Z,6.28
2022-10-15T12:04:37.668Z,6.72
2022-10-15T12:07:06.357Z,5.53
2022-10-15T12:09:33.638Z,5.88
2022-10-15T12:12:04.748Z,5.95
2022-10-15T12:14:36.673Z,5.75
2022-10-15T12:17:14.981Z,5.75
2022-10-15T12:19:46.011Z,6.80
2022-10-15T12:22:12.507Z,6.63
2022-10-15T12:24:56.494Z,6.10
2022-10-15T12:27:26.799Z,5.57
2022-10-15T12:29:53.196Z,5.72
2022-10-15T12:32:25.264Z,5.72
2022-10-15T12:34:55.719Z,5.43
2022-10-15T12:37:21.602Z,5.78
2022-10-15T12:39:52.160Z,5.50
2022-10-15T12:42:28.188Z,5.00
2022-10-15T12:44:52.435Z,5.85
2022-10-15T12:47:15.989Z,5.45
2022-10-15T12:49:49.033Z,5.47
2022-10-15T12:52:54.216Z,5.65
2022-10-15T12:55:25.557Z,5.72
2022-10-15T12:58:13.069Z,5.47
2022-10-15T13:00:44.445Z,5.30
2022-10-15T13:03:43.005Z,5.00
2022-10-15T13:06:26.237Z,5.47
2022-10-15T13:08:54.383Z,5.18
2022-10-15T13:11:23.702Z,4.80
2022-10-15T13:13:48.111Z,4.60
2022-10-15T13:16:14.297Z,4.28
2022-10-15T13:18:38.219Z,3.97
2022-10-15T13:23:32.946Z,4.22
2022-10-15T13:26:20.088Z,4.63
2022-10-15T13:28:44.891Z,4.60
2022-10-15T13:31:14.960Z,4.20
2022-10-15T13:33:43.195Z,4.45
2022-10-15T13:36:07.847Z,3.95
2022-10-15T13:38:31.477Z,4.07
2022-10-15T13:40:55.682Z,4.18
2022-10-15T13:43:22.335Z,3.75
2022-10-15T13:45:48.670Z,4.90
2022-10-15T13:48:14.056Z,17.23
2022-10-15T13:50:38.806Z,46.75
2022-10-15T13:53:13.703Z,53.13
2022-10-15T13:55:41.706Z,16.55
2022-10-15T13:58:15.308Z,10.20
2022-10-15T14:00:40.951Z,7.75
2022-10-15T14:03:17.823Z,3.97
2022-10-15T14:05:41.480Z,3.10
2022-10-15T14:08:05.074Z,3.40
2022-10-15T14:10:28.667Z,3.10
2022-10-15T14:12:53.008Z,3.10
2022-10-15T14:15:49.653Z,3.00
2022-10-15T14:18:16.870Z,8.10
2022-10-15T14:20:45.049Z,3.88
2022-10-15T14:23:16.887Z,3.10
2022-10-15T14:25:40.988Z,3.63
2022-10-15T14:28:04.666Z,2.70
2022-10-15T14:30:33.316Z,2.50
2022-10-15T14:32:58.299Z,2.40
2022-10-15T14:35:26.998Z,2.35
2022-10-15T14:38:02.585Z,2.42
2022-10-15T14:40:26.137Z,2.78
2022-10-15T14:43:03.928Z,2.55
2022-10-15T14:45:29.741Z,2.90
2022-10-15T14:47:57.447Z,3.08
2022-10-15T14:50:22.008Z,3.00
2022-10-15T14:52:46.931Z,2.88
2022-10-15T14:55:17.913Z,3.00
2022-10-15T14:57:45.122Z,3.22
2022-10-15T15:00:17.417Z,3.13
2022-10-15T15:02:41.270Z,2.90
2022-10-15T15:05:22.778Z,2.67
2022-10-15T15:07:48.059Z,3.28
2022-10-15T15:10:13.064Z,2.80
2022-10-15T15:12:37.410Z,2.50
2022-10-15T15:15:01.356Z,2.90
2022-10-15T15:17:27.150Z,2.80
2022-10-15T15:19:51.960Z,2.78
2022-10-15T15:22:22.343Z,2.88
2022-10-15T15:24:46.402Z,3.00
2022-10-15T15:27:23.300Z,2.78
2022-10-15T15:29:48.475Z,2.65
2022-10-15T15:32:14.595Z,2.95
2022-10-15T15:34:40.198Z,2.67
2022-10-15T15:37:03.750Z,2.90
2022-10-15T15:39:28.686Z,3.28
2022-10-15T15:41:52.178Z,2.85
2022-10-15T15:44:15.759Z,3.60
2022-10-15T15:46:39.383Z,3.40
2022-10-15T15:49:02.942Z,16.05
2022-10-15T15:51:30.226Z,9.82
2022-10-15T15:53:54.357Z,18.85
2022-10-15T15:56:19.494Z,30.85
2022-10-15T15:58:43.107Z,29.35
2022-10-15T16:01:07.083Z,16.90
2022-10-15T16:03:30.839Z,14.80
2022-10-15T16:05:54.387Z,12.73
2022-10-15T16:08:18.224Z,6.88
2022-10-15T16:10:45.045Z,7.20
2022-10-15T16:13:10.034Z,7.25
2022-10-15T16:15:33.559Z,6.43
2022-10-15T16:17:57.144Z,5.60
2022-10-15T16:20:21.043Z,4.70
2022-10-15T16:22:44.621Z,4.45
2022-10-15T16:25:09.871Z,5.40
2022-10-15T16:27:34.511Z,4.60
2022-10-15T16:29:59.490Z,4.45
2022-10-15T16:32:23.174Z,4.25
2022-10-15T16:34:46.901Z,4.43
2022-10-15T16:37:10.493Z,4.47
2022-10-15T16:39:34.019Z,3.97
2022-10-15T16:41:57.700Z,4.03
2022-10-15T16:44:21.339Z,3.60
2022-10-15T16:46:46.346Z,4.30
2022-10-15T16:49:10.919Z,3.88
2022-10-15T16:51:36.469Z,4.28
2022-10-15T16:54:02.438Z,4.47
2022-10-15T16:56:28.662Z,4.40
2022-10-15T16:58:52.661Z,4.53
2022-10-15T17:01:20.854Z,4.43
2022-10-15T17:03:46.532Z,4.25
2022-10-15T17:06:12.815Z,4.55
2022-10-15T17:08:40.974Z,5.20
2022-10-15T17:11:04.696Z,4.90
2022-10-15T17:13:28.303Z,4.70
2022-10-15T17:15:51.872Z,5.93
2022-10-15T17:18:15.753Z,5.10
2022-10-15T17:20:47.242Z,6.05
2022-10-15T17:23:10.920Z,6.35
2022-10-15T17:25:37.234Z,5.65
2022-10-15T17:28:00.999Z,6.70
2022-10-15T17:30:24.757Z,6.38
2022-10-15T17:32:50.958Z,6.97
2022-10-15T17:35:14.707Z,6.10
2022-10-15T17:37:39.988Z,7.28
2022-10-15T17:40:04.277Z,7.22
2022-10-15T17:42:29.544Z,6.90
2022-10-15T17:44:53.618Z,6.97
2022-10-15T17:47:17.485Z,7.15
2022-10-15T17:49:41.502Z,7.75
2022-10-15T17:52:06.201Z,7.72
2022-10-15T17:54:31.147Z,7.80
2022-10-15T17:56:54.722Z,7.45
2022-10-15T17:59:18.332Z,8.23
2022-10-15T18:02:00.695Z,9.48
2022-10-15T18:04:28.358Z,10.27
2022-10-15T18:06:52.254Z,9.40
2022-10-15T18:09:21.794Z,9.50
2022-10-15T18:11:48.567Z,10.73
2022-10-15T18:14:12.157Z,10.98
2022-10-15T18:16:35.731Z,10.43
2022-10-15T18:18:59.451Z,10.25
2022-10-15T18:21:28.876Z,11.68
2022-10-15T18:23:56.421Z,10.85
2022-10-15T18:26:22.367Z,9.90
2022-10-15T18:28:48.441Z,9.52
2022-10-15T18:31:15.014Z,10.25
2022-10-15T18:33:40.149Z,27.10
2022-10-15T18:36:09.036Z,14.88
2022-10-15T18:38:32.625Z,12.52
2022-10-15T18:40:56.190Z,11.82
2022-10-15T18:43:21.042Z,10.85
2022-10-15T18:45:47.365Z,12.60
2022-10-15T18:48:10.916Z,11.85
2022-10-15T18:50:35.844Z,12.63
2022-10-15T18:52:59.427Z,14.00
2022-10-15T18:55:23.014Z,13.95
2022-10-15T18:57:46.608Z,12.70
2022-10-15T19:00:12.000Z,12.88
2022-10-15T19:02:36.981Z,12.82
2022-10-15T19:05:00.531Z,12.18
2022-10-15T19:07:24.212Z,11.20
2022-10-15T19:09:47.728Z,12.52
2022-10-15T19:12:13.975Z,13.75
2022-10-15T19:14:37.491Z,14.07
2022-10-15T19:17:03.780Z,14.93
2022-10-15T19:19:30.440Z,15.05
2022-10-15T19:21:55.931Z,14.50
2022-10-15T19:24:21.990Z,14.57
2022-10-15T19:26:46.540Z,15.65
2022-10-15T19:29:10.422Z,13.15
2022-10-15T19:31:37.134Z,15.30
2022-10-15T19:34:01.031Z,16.23
2022-10-15T19:36:32.221Z,15.07
2022-10-15T19:38:56.153Z,13.68
2022-10-15T19:41:20.207Z,13.30
2022-10-15T19:43:44.375Z,13.98
2022-10-15T19:46:07.959Z,12.43
2022-10-15T19:48:34.762Z,12.40
2022-10-15T19:50:58.307Z,11.73
2022-10-15T19:53:23.272Z,9.65
2022-10-15T19:55:57.370Z,8.70
2022-10-15T19:58:21.099Z,8.38
2022-10-15T20:00:50.003Z,7.57
2022-10-15T20:03:13.737Z,7.55
2022-10-15T20:05:37.269Z,6.90
2022-10-15T20:08:01.044Z,7.80
2022-10-15T20:10:26.613Z,7.45
2022-10-15T20:12:50.394Z,8.57
2022-10-15T20:15:14.330Z,6.30
2022-10-15T20:17:38.015Z,5.80
2022-10-15T20:20:01.606Z,6.32
2022-10-15T20:22:25.504Z,5.78
2022-10-15T20:24:49.242Z,5.30
2022-10-15T20:27:14.235Z,5.80
2022-10-15T20:29:37.819Z,6.22
2022-10-15T20:32:11.416Z,4.40
2022-10-15T20:34:46.155Z,6.18
2022-10-15T20:37:09.771Z,6.65
2022-10-15T20:39:33.474Z,6.38
2022-10-15T20:41:57.029Z,7.28
2022-10-15T20:44:22.028Z,6.40
2022-10-15T20:46:50.540Z,8.65
2022-10-15T20:49:18.212Z,6.63
2022-10-15T20:51:44.407Z,6.18
2022-10-15T20:54:08.451Z,5.70
2022-10-15T20:56:32.156Z,5.47
2022-10-15T20:58:55.749Z,6.80
2022-10-15T21:01:21.323Z,5.80
2022-10-15T21:03:45.001Z,6.05
2022-10-15T21:06:08.555Z,5.78
2022-10-15T21:08:32.169Z,7.80
2022-10-15T21:11:02.541Z,6.32
2022-10-15T21:13:26.255Z,5.60
2022-10-15T21:15:49.775Z,5.72
2022-10-15T21:18:15.637Z,6.78
2022-10-15T21:20:39.187Z,5.78
2022-10-15T21:23:02.769Z,5.15
2022-10-15T21:25:26.475Z,4.90
2022-10-15T21:27:50.091Z,5.13
2022-10-15T21:30:13.830Z,4.50
2022-10-15T21:32:37.419Z,4.93
2022-10-15T21:35:03.663Z,4.43
2022-10-15T21:37:27.570Z,4.57
2022-10-15T21:39:51.876Z,4.35
2022-10-15T21:42:15.444Z,4.47
2022-10-15T21:44:39.035Z,4.18
2022-10-15T21:47:02.671Z,4.70
2022-10-15T21:49:26.186Z,4.35
2022-10-15T21:51:51.190Z,4.47
2022-10-15T21:54:14.714Z,4.45
2022-10-15T21:56:38.684Z,4.53
2022-10-15T21:59:02.323Z,4.68
2022-10-15T22:01:28.890Z,4.43
2022-10-15T22:03:54.686Z,4.63
2022-10-15T22:06:20.098Z,4.60
2022-10-15T22:08:45.750Z,4.25
2022-10-15T22:11:12.054Z,4.05
2022-10-15T22:13:35.594Z,4.05
2022-10-15T22:16:01.603Z,4.60
2022-10-15T22:18:25.181Z,4.43
2022-10-15T22:20:48.809Z,4.53
2022-10-15T22:23:12.307Z,4.05
2022-10-15T22:25:37.561Z,4.43
2022-10-15T22:28:01.099Z,4.40
2022-10-15T22:30:24.647Z,4.80
2022-10-15T22:32:48.223Z,3.90
2022-10-15T22:35:11.851Z,4.20
2022-10-15T22:37:35.503Z,4.38
2022-10-15T22:39:59.103Z,4.43
2022-10-15T22:42:24.410Z,4.45
2022-10-15T22:44:48.255Z,4.50
2022-10-15T22:47:11.971Z,4.35
2022-10-15T22:49:35.743Z,4.72
2022-10-15T22:51:59.259Z,5.70
2022-10-15T22:54:24.148Z,4.70
2022-10-15T22:56:47.748Z,5.10
2022-10-15T22:59:12.769Z,5.40
2022-10-15T23:01:36.914Z,4.85
2022-10-15T23:04:03.542Z,5.82
2022-10-15T23:06:27.506Z,5.20
2022-10-15T23:08:51.766Z,4.47
2022-10-15T23:11:18.710Z,5.03
2022-10-15T23:13:43.745Z,4.35
2022-10-15T23:16:13.979Z,4.68
2022-10-15T23:18:37.538Z,4.50
2022-10-15T23:21:06.250Z,4.47
2022-10-15T23:23:29.803Z,4.50
2022-10-15T23:25:53.305Z,4.50
2022-10-15T23:28:16.859Z,4.30
2022-10-15T23:30:40.619Z,3.83
2022-10-15T23:33:05.744Z,4.35
2022-10-15T23:35:29.312Z,4.30
2022-10-15T23:37:52.910Z,4.10
2022-10-15T23:40:16.594Z,3.97
2022-10-15T23:42:40.323Z,4.22
2022-10-15T23:45:03.917Z,4.07
2022-10-15T23:47:27.707Z,4.43
2022-10-15T23:49:52.983Z,4.18
2022-10-15T23:52:16.535Z,4.10
2022-10-15T23:54:40.335Z,4.40
2022-10-15T23:57:04.052Z,3.58
2022-10-15T23:59:27.927Z,4.22
